createdAt,value
2019-03-05T00:01:50.431Z,3.77
2019-03-05T00:06:55.537Z,5.90
2019-03-05T00:12:02.675Z,5.17
2019-03-05T00:17:08.540Z,4.33
2019-03-05T00:22:13.312Z,3.57
2019-03-05T00:27:17.934Z,4.93
2019-03-05T00:32:23.311Z,4.78
2019-03-05T00:38:11.267Z,3.37
2019-03-05T00:43:26.928Z,6.87
2019-03-05T00:48:43.685Z,1.70
2019-03-05T00:54:16.257Z,3.80
2019-03-05T00:59:49.553Z,1.80
2019-03-05T01:05:29.749Z,2.20
2019-03-05T01:10:34.224Z,3.23
2019-03-05T01:15:42.104Z,2.83
2019-03-05T01:20:47.115Z,3.40
2019-03-05T01:25:51.758Z,2.77
2019-03-05T01:31:18.496Z,4.83
2019-03-05T01:36:24.936Z,1.63
2019-03-05T01:41:29.916Z,0.77
2019-03-05T01:46:34.935Z,1.10
2019-03-05T01:51:39.621Z,1.73
2019-03-05T01:56:45.646Z,1.80
2019-03-05T02:01:50.533Z,2.13
2019-03-05T02:06:55.755Z,0.60
2019-03-05T02:12:00.630Z,0.50
2019-03-05T02:17:05.072Z,1.00
2019-03-05T02:22:12.643Z,5.43
2019-03-05T02:27:59.462Z,4.17
2019-03-05T02:33:34.350Z,2.53
2019-03-05T02:39:16.882Z,1.13
2019-03-05T02:44:48.449Z,5.47
2019-03-05T02:50:30.909Z,3.70
2019-03-05T02:55:59.161Z,2.27
2019-03-05T03:01:21.889Z,5.43
2019-03-05T03:06:30.173Z,2.37
2019-03-05T03:11:34.829Z,5.23
2019-03-05T03:16:39.582Z,3.13
2019-03-05T03:21:44.967Z,6.50
2019-03-05T03:26:49.320Z,5.25
2019-03-05T03:31:53.969Z,4.70
2019-03-05T03:36:58.618Z,2.30
2019-03-05T03:42:05.075Z,3.43
2019-03-05T03:47:12.592Z,2.80
2019-03-05T03:52:17.585Z,5.63
2019-03-05T03:57:22.250Z,6.05
2019-03-05T04:02:26.827Z,15.17
2019-03-05T04:07:31.292Z,7.93
2019-03-05T04:12:36.013Z,4.90
2019-03-05T04:17:41.043Z,2.43
2019-03-05T04:22:45.483Z,5.47
2019-03-05T04:27:50.352Z,6.27
2019-03-05T04:32:56.723Z,2.53
2019-03-05T04:38:02.048Z,6.83
2019-03-05T04:43:06.513Z,1.97
2019-03-05T04:48:11.210Z,3.23
2019-03-05T04:53:16.184Z,1.73
2019-03-05T04:58:20.766Z,5.10
2019-03-05T05:03:26.559Z,2.70
2019-03-05T05:08:31.356Z,9.33
2019-03-05T05:13:36.266Z,2.23
2019-03-05T05:18:41.459Z,2.93
2019-03-05T05:23:50.021Z,1.83
2019-03-05T05:28:56.705Z,4.63
2019-03-05T05:34:01.560Z,3.60
2019-03-05T05:39:27.814Z,4.43
2019-03-05T05:44:33.514Z,2.70
2019-03-05T05:49:41.339Z,3.03
2019-03-05T05:54:45.774Z,3.47
2019-03-05T05:59:50.896Z,1.07
2019-03-05T06:04:55.437Z,1.60
2019-03-05T06:10:01.153Z,1.87
2019-03-05T06:15:07.715Z,2.10
2019-03-05T06:20:13.097Z,0.90
2019-03-05T06:25:17.549Z,2.03
2019-03-05T06:30:22.291Z,4.78
2019-03-05T06:35:26.828Z,0.77
2019-03-05T06:40:31.424Z,2.80
2019-03-05T06:45:36.604Z,1.37
2019-03-05T06:50:40.998Z,3.90
2019-03-05T06:55:46.935Z,1.87
2019-03-05T07:00:51.219Z,1.53
2019-03-05T07:06:31.104Z,3.30
2019-03-05T07:12:02.482Z,1.53
2019-03-05T07:17:19.675Z,2.53
2019-03-05T07:22:51.260Z,1.75
2019-03-05T07:27:59.912Z,2.33
2019-03-05T07:33:04.441Z,3.43
2019-03-05T07:38:10.896Z,1.40
2019-03-05T07:43:15.663Z,1.37
2019-03-05T07:48:20.554Z,3.43
2019-03-05T07:53:25.149Z,1.95
2019-03-05T07:58:30.570Z,7.00
2019-03-05T08:03:35.938Z,1.65
2019-03-05T08:09:17.702Z,0.63
2019-03-05T08:14:49.861Z,1.43
2019-03-05T08:19:56.733Z,1.50
2019-03-05T08:25:01.315Z,0.90
2019-03-05T08:30:14.126Z,1.53
2019-03-05T08:35:14.163Z,1.80
2019-03-05T08:40:21.664Z,1.40
2019-03-05T08:45:29.625Z,1.17
2019-03-05T08:50:33.337Z,1.73
2019-03-05T08:55:40.137Z,1.47
2019-03-05T09:00:47.953Z,3.13
2019-03-05T09:05:51.975Z,0.93
2019-03-05T09:10:56.739Z,1.23
2019-03-05T09:16:02.198Z,2.87
2019-03-05T09:21:07.573Z,1.57
2019-03-05T09:26:13.148Z,3.00
2019-03-05T09:31:18.439Z,1.37
2019-03-05T09:36:23.310Z,3.73
2019-03-05T09:41:27.704Z,2.00
2019-03-05T09:46:34.610Z,3.95
2019-03-05T09:51:39.231Z,4.17
2019-03-05T09:56:44.126Z,2.77
2019-03-05T10:01:54.805Z,2.67
2019-03-05T10:06:59.799Z,1.77
2019-03-05T10:12:05.900Z,1.43
2019-03-05T10:17:10.482Z,0.90
2019-03-05T10:22:15.177Z,4.23
2019-03-05T10:27:19.556Z,3.07
2019-03-05T10:32:24.771Z,1.63
2019-03-05T10:37:29.606Z,2.63
2019-03-05T10:42:34.090Z,5.93
2019-03-05T10:47:39.671Z,3.30
2019-03-05T10:52:44.170Z,7.03
2019-03-05T10:57:49.392Z,2.70
2019-03-05T11:02:54.810Z,1.80
2019-03-05T11:07:59.547Z,2.10
2019-03-05T11:13:04.496Z,1.07
2019-03-05T11:18:28.710Z,2.33
2019-03-05T11:23:33.580Z,4.70
2019-03-05T11:28:40.690Z,1.30
2019-03-05T11:33:49.247Z,4.57
2019-03-05T11:39:01.807Z,2.70
2019-03-05T11:44:10.532Z,2.50
2019-03-05T11:49:18.364Z,2.03
2019-03-05T11:54:29.758Z,1.90
2019-03-05T11:59:36.056Z,3.93
2019-03-05T12:04:42.471Z,6.97
2019-03-05T12:09:48.847Z,1.30
2019-03-05T12:14:53.828Z,2.63
2019-03-05T12:19:59.846Z,3.50
2019-03-05T12:25:07.920Z,2.60
2019-03-05T12:30:17.988Z,3.40
2019-03-05T12:35:27.960Z,1.27
2019-03-05T12:40:32.737Z,3.12
2019-03-05T12:45:46.417Z,2.10
2019-03-05T12:50:54.163Z,5.03
2019-03-05T12:56:24.697Z,2.90
2019-03-05T13:02:44.982Z,3.50
2019-03-05T13:07:52.504Z,1.80
2019-03-05T13:13:51.373Z,3.60
2019-03-05T13:19:15.298Z,2.87
2019-03-05T13:24:34.979Z,4.43
2019-03-05T13:29:41.741Z,2.27
2019-03-05T13:34:47.539Z,5.35
2019-03-05T13:39:54.961Z,2.90
2019-03-05T13:44:59.383Z,3.50
2019-03-05T13:50:32.057Z,5.30
2019-03-05T13:56:43.987Z,3.77
2019-03-05T14:01:48.907Z,2.67
2019-03-05T14:07:29.065Z,2.93
2019-03-05T14:12:33.629Z,2.40
2019-03-05T14:17:42.522Z,5.03
2019-03-05T14:22:47.314Z,3.83
2019-03-05T14:28:00.325Z,1.27
2019-03-05T14:33:18.476Z,3.00
2019-03-05T14:38:35.320Z,1.57
2019-03-05T14:44:00.428Z,4.60
2019-03-05T14:49:19.541Z,2.93
2019-03-05T14:54:33.050Z,3.50
2019-03-05T14:59:53.820Z,3.00
2019-03-05T15:05:06.153Z,3.80
2019-03-05T15:10:16.986Z,5.37
2019-03-05T15:15:37.252Z,3.37
2019-03-05T15:20:49.286Z,3.23
2019-03-05T15:26:13.170Z,7.53
2019-03-05T15:31:26.790Z,5.27
2019-03-05T15:36:54.412Z,4.25
2019-03-05T15:42:04.241Z,3.63
2019-03-05T15:47:25.433Z,5.67
2019-03-05T15:52:35.789Z,5.43
2019-03-05T15:58:05.421Z,6.20
2019-03-05T16:03:12.793Z,0.90
2019-03-05T16:08:32.629Z,6.20
2019-03-05T16:13:44.808Z,5.07
2019-03-05T16:18:56.752Z,3.20
2019-03-05T16:24:06.416Z,5.83
2019-03-05T16:29:20.965Z,7.57
2019-03-05T16:34:45.718Z,5.27
2019-03-05T16:40:13.788Z,9.33
2019-03-05T16:45:38.325Z,6.63
2019-03-05T16:50:57.059Z,6.60
2019-03-05T16:56:30.187Z,3.90
2019-03-05T17:01:53.777Z,4.67
2019-03-05T17:07:18.666Z,9.13
2019-03-05T17:12:24.233Z,6.10
2019-03-05T17:17:29.162Z,5.73
2019-03-05T17:22:34.391Z,4.30
2019-03-05T17:27:42.093Z,3.63
2019-03-05T17:32:48.034Z,8.07
2019-03-05T17:37:53.755Z,3.17
2019-03-05T17:42:58.720Z,1.30
2019-03-05T17:48:05.955Z,4.27
2019-03-05T17:53:10.850Z,4.27
2019-03-05T17:58:15.929Z,5.57
2019-03-05T18:03:21.108Z,3.10
2019-03-05T18:08:26.251Z,2.57
2019-03-05T18:13:30.974Z,0.80
2019-03-05T18:18:36.655Z,2.20
2019-03-05T18:23:41.806Z,1.63
2019-03-05T18:28:46.761Z,0.93
2019-03-05T18:33:55.801Z,0.50
2019-03-05T18:39:00.744Z,0.60
2019-03-05T18:44:06.816Z,0.90
2019-03-05T18:49:15.581Z,2.93
2019-03-05T18:54:22.782Z,0.57
2019-03-05T18:59:28.184Z,1.13
2019-03-05T19:04:32.796Z,2.27
2019-03-05T19:09:37.187Z,1.27
2019-03-05T19:14:41.998Z,0.93
2019-03-05T19:19:46.931Z,2.08
2019-03-05T19:24:51.523Z,3.13
2019-03-05T19:29:56.367Z,1.87
2019-03-05T19:35:01.245Z,3.50
2019-03-05T19:40:07.873Z,2.00
2019-03-05T19:45:13.174Z,1.52
2019-03-05T19:50:18.787Z,4.67
2019-03-05T19:55:23.632Z,2.50
2019-03-05T20:00:34.117Z,3.03
2019-03-05T20:05:40.146Z,1.20
2019-03-05T20:10:45.466Z,2.87
2019-03-05T20:15:57.246Z,2.93
2019-03-05T20:21:02.305Z,8.40
2019-03-05T20:26:07.891Z,18.10
2019-03-05T20:31:13.170Z,10.60
2019-03-05T20:36:18.030Z,9.20
2019-03-05T20:41:24.015Z,11.03
2019-03-05T20:46:29.614Z,19.23
2019-03-05T20:51:37.482Z,19.20
2019-03-05T20:56:42.255Z,10.57
2019-03-05T21:01:47.383Z,14.37
2019-03-05T21:06:53.496Z,14.63
2019-03-05T21:11:58.378Z,26.90
2019-03-05T21:17:03.322Z,33.30
2019-03-05T21:22:08.233Z,27.60
2019-03-05T21:27:13.751Z,18.57
2019-03-05T21:32:19.927Z,12.17
2019-03-05T21:37:26.178Z,14.97
2019-03-05T21:42:31.901Z,11.70
2019-03-05T21:47:36.676Z,17.23
2019-03-05T21:52:41.486Z,10.82
2019-03-05T21:57:46.894Z,9.70
2019-03-05T22:02:54.057Z,10.87
2019-03-05T22:08:02.409Z,11.57
2019-03-05T22:13:08.568Z,15.77
2019-03-05T22:18:14.271Z,14.00
2019-03-05T22:23:20.100Z,23.77
2019-03-05T22:28:24.992Z,23.30
2019-03-05T22:33:30.030Z,17.03
2019-03-05T22:38:35.630Z,17.60
2019-03-05T22:43:40.204Z,14.63
2019-03-05T22:48:45.036Z,15.70
2019-03-05T22:53:50.675Z,15.27
2019-03-05T22:58:55.544Z,15.87
2019-03-05T23:04:00.942Z,16.48
2019-03-05T23:09:12.912Z,11.60
2019-03-05T23:14:17.688Z,14.63
2019-03-05T23:19:23.207Z,13.10
2019-03-05T23:24:28.061Z,14.67
2019-03-05T23:29:52.969Z,13.10
2019-03-05T23:34:57.875Z,10.63
2019-03-05T23:40:02.685Z,15.93
2019-03-05T23:45:07.789Z,18.82
2019-03-05T23:50:12.781Z,15.27
2019-03-05T23:55:18.207Z,15.80
